sensor_id;sensor_type;location;lat;lon;timestamp;P1;durP1;ratioP1;P2;durP2;ratioP2
16579;SDS011;8402;51.466;6.806;2022-11-14T00:01:12;11.90;;;6.70;;
16579;SDS011;8402;51.466;6.806;2022-11-14T00:03:40;11.93;;;6.27;;
16579;SDS011;8402;51.466;6.806;2022-11-14T00:06:08;11.13;;;6.07;;
16579;SDS011;8402;51.466;6.806;2022-11-14T00:08:36;13.07;;;6.03;;
16579;SDS011;8402;51.466;6.806;2022-11-14T00:11:04;8.93;;;5.97;;
16579;SDS011;8402;51.466;6.806;2022-11-14T00:13:36;12.90;;;5.93;;
16579;SDS011;8402;51.466;6.806;2022-11-14T00:16:04;11.40;;;6.17;;
16579;SDS011;8402;51.466;6.806;2022-11-14T00:18:31;11.27;;;6.33;;
16579;SDS011;8402;51.466;6.806;2022-11-14T00:20:59;12.47;;;6.23;;
16579;SDS011;8402;51.466;6.806;2022-11-14T00:23:27;11.37;;;6.00;;
16579;SDS011;8402;51.466;6.806;2022-11-14T00:25:55;11.40;;;6.50;;
16579;SDS011;8402;51.466;6.806;2022-11-14T00:28:24;14.07;;;6.23;;
16579;SDS011;8402;51.466;6.806;2022-11-14T00:30:53;12.60;;;6.40;;
16579;SDS011;8402;51.466;6.806;2022-11-14T00:33:21;11.50;;;6.17;;
16579;SDS011;8402;51.466;6.806;2022-11-14T00:35:50;10.37;;;6.23;;
16579;SDS011;8402;51.466;6.806;2022-11-14T00:38:19;10.60;;;6.20;;
16579;SDS011;8402;51.466;6.806;2022-11-14T00:40:47;10.77;;;6.60;;
16579;SDS011;8402;51.466;6.806;2022-11-14T00:43:17;10.03;;;6.17;;
16579;SDS011;8402;51.466;6.806;2022-11-14T00:45:46;12.33;;;6.33;;
16579;SDS011;8402;51.466;6.806;2022-11-14T00:48:15;13.43;;;7.27;;
16579;SDS011;8402;51.466;6.806;2022-11-14T00:50:43;13.63;;;6.60;;
16579;SDS011;8402;51.466;6.806;2022-11-14T00:53:11;13.70;;;6.60;;
16579;SDS011;8402;51.466;6.806;2022-11-14T00:55:40;10.37;;;6.30;;
16579;SDS011;8402;51.466;6.806;2022-11-14T00:58:08;15.47;;;7.00;;
16579;SDS011;8402;51.466;6.806;2022-11-14T01:00:37;12.77;;;6.50;;
16579;SDS011;8402;51.466;6.806;2022-11-14T01:03:05;14.07;;;7.13;;
16579;SDS011;8402;51.466;6.806;2022-11-14T01:05:34;13.00;;;7.47;;
16579;SDS011;8402;51.466;6.806;2022-11-14T01:08:07;13.50;;;7.47;;
16579;SDS011;8402;51.466;6.806;2022-11-14T01:10:37;14.17;;;6.87;;
16579;SDS011;8402;51.466;6.806;2022-11-14T01:13:06;11.37;;;6.77;;
16579;SDS011;8402;51.466;6.806;2022-11-14T01:15:37;12.87;;;6.63;;
16579;SDS011;8402;51.466;6.806;2022-11-14T01:18:06;10.80;;;6.93;;
16579;SDS011;8402;51.466;6.806;2022-11-14T01:20:36;12.30;;;6.90;;
16579;SDS011;8402;51.466;6.806;2022-11-14T01:23:05;14.93;;;7.50;;
16579;SDS011;8402;51.466;6.806;2022-11-14T01:25:33;13.57;;;7.60;;
16579;SDS011;8402;51.466;6.806;2022-11-14T01:28:01;13.80;;;7.37;;
16579;SDS011;8402;51.466;6.806;2022-11-14T01:30:32;12.43;;;6.90;;
16579;SDS011;8402;51.466;6.806;2022-11-14T01:33:00;14.00;;;7.70;;
16579;SDS011;8402;51.466;6.806;2022-11-14T01:35:29;12.53;;;7.23;;
16579;SDS011;8402;51.466;6.806;2022-11-14T01:37:59;14.50;;;6.73;;
16579;SDS011;8402;51.466;6.806;2022-11-14T01:40:27;13.00;;;6.97;;
16579;SDS011;8402;51.466;6.806;2022-11-14T01:45:54;14.77;;;7.33;;
16579;SDS011;8402;51.466;6.806;2022-11-14T01:48:29;14.87;;;7.47;;
16579;SDS011;8402;51.466;6.806;2022-11-14T01:51:02;14.77;;;7.10;;
16579;SDS011;8402;51.466;6.806;2022-11-14T01:53:42;12.97;;;6.80;;
16579;SDS011;8402;51.466;6.806;2022-11-14T01:56:11;11.63;;;6.73;;
16579;SDS011;8402;51.466;6.806;2022-11-14T01:58:44;12.30;;;7.03;;
16579;SDS011;8402;51.466;6.806;2022-11-14T02:01:16;11.73;;;6.80;;
16579;SDS011;8402;51.466;6.806;2022-11-14T02:03:44;13.27;;;7.17;;
16579;SDS011;8402;51.466;6.806;2022-11-14T02:06:17;17.03;;;7.27;;
16579;SDS011;8402;51.466;6.806;2022-11-14T02:08:50;17.80;;;7.83;;
16579;SDS011;8402;51.466;6.806;2022-11-14T02:11:19;14.63;;;7.03;;
16579;SDS011;8402;51.466;6.806;2022-11-14T02:13:47;14.63;;;7.30;;
16579;SDS011;8402;51.466;6.806;2022-11-14T02:16:15;13.27;;;7.40;;
16579;SDS011;8402;51.466;6.806;2022-11-14T02:18:42;12.57;;;7.40;;
16579;SDS011;8402;51.466;6.806;2022-11-14T02:21:12;15.37;;;8.33;;
16579;SDS011;8402;51.466;6.806;2022-11-14T02:23:40;12.20;;;7.50;;
16579;SDS011;8402;51.466;6.806;2022-11-14T02:26:07;13.00;;;7.03;;
16579;SDS011;8402;51.466;6.806;2022-11-14T02:28:35;14.77;;;8.10;;
16579;SDS011;8402;51.466;6.806;2022-11-14T02:31:03;13.70;;;7.50;;
16579;SDS011;8402;51.466;6.806;2022-11-14T02:33:31;12.53;;;7.50;;
16579;SDS011;8402;51.466;6.806;2022-11-14T02:35:59;12.67;;;7.50;;
16579;SDS011;8402;51.466;6.806;2022-11-14T02:38:28;18.03;;;8.13;;
16579;SDS011;8402;51.466;6.806;2022-11-14T02:40:58;17.70;;;8.23;;
16579;SDS011;8402;51.466;6.806;2022-11-14T02:43:26;13.33;;;7.57;;
16579;SDS011;8402;51.466;6.806;2022-11-14T02:45:54;13.53;;;7.60;;
16579;SDS011;8402;51.466;6.806;2022-11-14T02:48:29;14.07;;;8.23;;
16579;SDS011;8402;51.466;6.806;2022-11-14T02:50:57;15.30;;;7.30;;
16579;SDS011;8402;51.466;6.806;2022-11-14T02:53:25;14.33;;;8.17;;
16579;SDS011;8402;51.466;6.806;2022-11-14T02:55:55;13.03;;;8.00;;
16579;SDS011;8402;51.466;6.806;2022-11-14T02:58:23;12.33;;;7.73;;
16579;SDS011;8402;51.466;6.806;2022-11-14T03:00:50;13.33;;;8.00;;
16579;SDS011;8402;51.466;6.806;2022-11-14T03:03:38;17.50;;;8.40;;
16579;SDS011;8402;51.466;6.806;2022-11-14T03:06:06;14.80;;;8.00;;
16579;SDS011;8402;51.466;6.806;2022-11-14T03:08:34;17.27;;;8.67;;
16579;SDS011;8402;51.466;6.806;2022-11-14T03:11:04;16.27;;;8.00;;
16579;SDS011;8402;51.466;6.806;2022-11-14T03:13:32;14.17;;;7.93;;
16579;SDS011;8402;51.466;6.806;2022-11-14T03:16:03;14.43;;;8.17;;
16579;SDS011;8402;51.466;6.806;2022-11-14T03:18:32;17.17;;;8.50;;
16579;SDS011;8402;51.466;6.806;2022-11-14T03:21:04;13.93;;;8.07;;
16579;SDS011;8402;51.466;6.806;2022-11-14T03:23:32;13.67;;;7.73;;
16579;SDS011;8402;51.466;6.806;2022-11-14T03:26:00;14.83;;;7.77;;
16579;SDS011;8402;51.466;6.806;2022-11-14T03:28:30;15.53;;;8.40;;
16579;SDS011;8402;51.466;6.806;2022-11-14T03:30:58;16.80;;;8.47;;
16579;SDS011;8402;51.466;6.806;2022-11-14T03:33:26;13.93;;;7.97;;
16579;SDS011;8402;51.466;6.806;2022-11-14T03:35:54;17.30;;;8.67;;
16579;SDS011;8402;51.466;6.806;2022-11-14T03:38:22;17.23;;;8.37;;
16579;SDS011;8402;51.466;6.806;2022-11-14T03:40:51;15.83;;;8.27;;
16579;SDS011;8402;51.466;6.806;2022-11-14T03:43:19;19.70;;;9.43;;
16579;SDS011;8402;51.466;6.806;2022-11-14T03:45:49;17.30;;;8.07;;
16579;SDS011;8402;51.466;6.806;2022-11-14T03:48:17;15.47;;;8.50;;
16579;SDS011;8402;51.466;6.806;2022-11-14T03:50:45;15.83;;;8.37;;
16579;SDS011;8402;51.466;6.806;2022-11-14T03:53:13;16.03;;;8.77;;
16579;SDS011;8402;51.466;6.806;2022-11-14T03:55:41;15.70;;;8.37;;
16579;SDS011;8402;51.466;6.806;2022-11-14T03:58:09;15.43;;;8.30;;
16579;SDS011;8402;51.466;6.806;2022-11-14T04:00:37;14.83;;;8.47;;
16579;SDS011;8402;51.466;6.806;2022-11-14T04:03:07;19.77;;;9.00;;
16579;SDS011;8402;51.466;6.806;2022-11-14T04:05:35;19.67;;;8.77;;
16579;SDS011;8402;51.466;6.806;2022-11-14T04:08:03;17.13;;;8.87;;
16579;SDS011;8402;51.466;6.806;2022-11-14T04:10:31;19.63;;;8.63;;
16579;SDS011;8402;51.466;6.806;2022-11-14T04:12:59;17.73;;;9.10;;
16579;SDS011;8402;51.466;6.806;2022-11-14T04:15:27;15.83;;;8.77;;
16579;SDS011;8402;51.466;6.806;2022-11-14T04:17:55;16.50;;;9.17;;
16579;SDS011;8402;51.466;6.806;2022-11-14T04:20:25;17.13;;;9.60;;
16579;SDS011;8402;51.466;6.806;2022-11-14T04:22:53;20.37;;;8.93;;
16579;SDS011;8402;51.466;6.806;2022-11-14T04:25:21;16.80;;;9.20;;
16579;SDS011;8402;51.466;6.806;2022-11-14T04:27:48;17.23;;;8.87;;
16579;SDS011;8402;51.466;6.806;2022-11-14T04:30:16;15.40;;;8.10;;
16579;SDS011;8402;51.466;6.806;2022-11-14T04:32:44;15.97;;;8.67;;
16579;SDS011;8402;51.466;6.806;2022-11-14T04:35:13;15.27;;;8.27;;
16579;SDS011;8402;51.466;6.806;2022-11-14T04:37:43;14.80;;;8.93;;
16579;SDS011;8402;51.466;6.806;2022-11-14T04:40:11;16.17;;;8.97;;
16579;SDS011;8402;51.466;6.806;2022-11-14T04:42:39;16.67;;;8.90;;
16579;SDS011;8402;51.466;6.806;2022-11-14T04:45:07;20.53;;;8.97;;
16579;SDS011;8402;51.466;6.806;2022-11-14T04:47:35;18.43;;;8.97;;
16579;SDS011;8402;51.466;6.806;2022-11-14T04:50:05;16.80;;;8.97;;
16579;SDS011;8402;51.466;6.806;2022-11-14T04:52:34;15.07;;;8.80;;
16579;SDS011;8402;51.466;6.806;2022-11-14T04:55:04;16.40;;;8.90;;
16579;SDS011;8402;51.466;6.806;2022-11-14T04:57:32;17.83;;;9.33;;
16579;SDS011;8402;51.466;6.806;2022-11-14T04:59:59;19.13;;;9.13;;
16579;SDS011;8402;51.466;6.806;2022-11-14T05:02:29;17.60;;;9.13;;
16579;SDS011;8402;51.466;6.806;2022-11-14T05:04:57;23.60;;;10.27;;
16579;SDS011;8402;51.466;6.806;2022-11-14T05:07:25;16.97;;;9.80;;
16579;SDS011;8402;51.466;6.806;2022-11-14T05:09:53;22.43;;;9.10;;
16579;SDS011;8402;51.466;6.806;2022-11-14T05:12:22;15.20;;;8.97;;
16579;SDS011;8402;51.466;6.806;2022-11-14T05:14:50;24.37;;;10.33;;
16579;SDS011;8402;51.466;6.806;2022-11-14T05:17:18;18.03;;;10.03;;
16579;SDS011;8402;51.466;6.806;2022-11-14T05:19:46;19.90;;;9.40;;
16579;SDS011;8402;51.466;6.806;2022-11-14T05:22:14;20.07;;;10.10;;
16579;SDS011;8402;51.466;6.806;2022-11-14T05:24:42;21.23;;;9.43;;
16579;SDS011;8402;51.466;6.806;2022-11-14T05:27:09;20.27;;;9.53;;
16579;SDS011;8402;51.466;6.806;2022-11-14T05:29:39;20.50;;;9.33;;
16579;SDS011;8402;51.466;6.806;2022-11-14T05:32:07;17.53;;;9.20;;
16579;SDS011;8402;51.466;6.806;2022-11-14T05:34:41;19.00;;;8.80;;
16579;SDS011;8402;51.466;6.806;2022-11-14T05:37:09;21.53;;;10.40;;
16579;SDS011;8402;51.466;6.806;2022-11-14T05:39:37;17.27;;;8.97;;
16579;SDS011;8402;51.466;6.806;2022-11-14T05:42:05;18.53;;;9.40;;
16579;SDS011;8402;51.466;6.806;2022-11-14T05:44:32;18.37;;;9.63;;
16579;SDS011;8402;51.466;6.806;2022-11-14T05:47:02;18.40;;;9.63;;
16579;SDS011;8402;51.466;6.806;2022-11-14T05:49:29;23.27;;;10.57;;
16579;SDS011;8402;51.466;6.806;2022-11-14T05:51:57;17.73;;;9.40;;
16579;SDS011;8402;51.466;6.806;2022-11-14T05:54:25;21.10;;;10.10;;
16579;SDS011;8402;51.466;6.806;2022-11-14T05:56:53;23.30;;;9.90;;
16579;SDS011;8402;51.466;6.806;2022-11-14T05:59:21;19.03;;;10.13;;
16579;SDS011;8402;51.466;6.806;2022-11-14T06:01:49;19.90;;;9.70;;
16579;SDS011;8402;51.466;6.806;2022-11-14T06:04:19;20.30;;;9.33;;
16579;SDS011;8402;51.466;6.806;2022-11-14T06:06:46;19.47;;;9.73;;
16579;SDS011;8402;51.466;6.806;2022-11-14T06:09:14;20.67;;;9.17;;
16579;SDS011;8402;51.466;6.806;2022-11-14T06:11:42;19.03;;;9.50;;
16579;SDS011;8402;51.466;6.806;2022-11-14T06:14:10;17.90;;;9.63;;
16579;SDS011;8402;51.466;6.806;2022-11-14T06:16:38;22.23;;;10.17;;
16579;SDS011;8402;51.466;6.806;2022-11-14T06:19:06;24.33;;;10.50;;
16579;SDS011;8402;51.466;6.806;2022-11-14T06:21:35;17.30;;;8.87;;
16579;SDS011;8402;51.466;6.806;2022-11-14T06:24:03;18.70;;;9.47;;
16579;SDS011;8402;51.466;6.806;2022-11-14T06:26:32;19.90;;;9.70;;
16579;SDS011;8402;51.466;6.806;2022-11-14T06:29:00;21.43;;;9.97;;
16579;SDS011;8402;51.466;6.806;2022-11-14T06:31:28;19.03;;;9.57;;
16579;SDS011;8402;51.466;6.806;2022-11-14T06:33:56;22.13;;;9.90;;
16579;SDS011;8402;51.466;6.806;2022-11-14T06:36:24;26.67;;;10.23;;
16579;SDS011;8402;51.466;6.806;2022-11-14T06:38:53;20.80;;;9.80;;
16579;SDS011;8402;51.466;6.806;2022-11-14T06:41:21;18.40;;;8.83;;
16579;SDS011;8402;51.466;6.806;2022-11-14T06:43:50;18.07;;;9.77;;
16579;SDS011;8402;51.466;6.806;2022-11-14T06:46:20;19.23;;;10.27;;
16579;SDS011;8402;51.466;6.806;2022-11-14T06:48:49;19.10;;;9.53;;
16579;SDS011;8402;51.466;6.806;2022-11-14T06:51:17;18.50;;;8.77;;
16579;SDS011;8402;51.466;6.806;2022-11-14T06:53:46;22.47;;;9.80;;
16579;SDS011;8402;51.466;6.806;2022-11-14T06:56:16;17.87;;;9.43;;
16579;SDS011;8402;51.466;6.806;2022-11-14T06:58:46;18.10;;;8.43;;
16579;SDS011;8402;51.466;6.806;2022-11-14T07:01:16;22.30;;;9.30;;
16579;SDS011;8402;51.466;6.806;2022-11-14T07:03:45;21.80;;;9.70;;
16579;SDS011;8402;51.466;6.806;2022-11-14T07:06:14;19.90;;;9.47;;
16579;SDS011;8402;51.466;6.806;2022-11-14T07:08:44;19.53;;;9.60;;
16579;SDS011;8402;51.466;6.806;2022-11-14T07:11:13;19.53;;;8.70;;
16579;SDS011;8402;51.466;6.806;2022-11-14T07:13:49;19.03;;;9.27;;
16579;SDS011;8402;51.466;6.806;2022-11-14T07:16:18;21.13;;;9.83;;
16579;SDS011;8402;51.466;6.806;2022-11-14T07:18:46;21.90;;;9.13;;
16579;SDS011;8402;51.466;6.806;2022-11-14T07:21:14;20.87;;;9.60;;
16579;SDS011;8402;51.466;6.806;2022-11-14T07:23:42;24.37;;;9.77;;
16579;SDS011;8402;51.466;6.806;2022-11-14T07:26:10;20.17;;;9.77;;
16579;SDS011;8402;51.466;6.806;2022-11-14T07:28:39;19.93;;;10.07;;
16579;SDS011;8402;51.466;6.806;2022-11-14T07:31:10;17.10;;;8.70;;
16579;SDS011;8402;51.466;6.806;2022-11-14T07:33:40;21.37;;;9.30;;
16579;SDS011;8402;51.466;6.806;2022-11-14T07:36:09;20.00;;;9.00;;
16579;SDS011;8402;51.466;6.806;2022-11-14T07:38:37;19.67;;;9.50;;
16579;SDS011;8402;51.466;6.806;2022-11-14T07:41:07;17.67;;;9.27;;
16579;SDS011;8402;51.466;6.806;2022-11-14T07:43:36;17.00;;;9.50;;
16579;SDS011;8402;51.466;6.806;2022-11-14T07:46:04;20.20;;;10.03;;
16579;SDS011;8402;51.466;6.806;2022-11-14T07:48:35;19.77;;;9.87;;
16579;SDS011;8402;51.466;6.806;2022-11-14T07:51:04;19.80;;;9.97;;
16579;SDS011;8402;51.466;6.806;2022-11-14T07:53:33;18.90;;;9.67;;
16579;SDS011;8402;51.466;6.806;2022-11-14T07:56:02;21.30;;;9.77;;
16579;SDS011;8402;51.466;6.806;2022-11-14T07:58:33;18.73;;;9.97;;
16579;SDS011;8402;51.466;6.806;2022-11-14T08:01:01;18.67;;;9.23;;
16579;SDS011;8402;51.466;6.806;2022-11-14T08:03:30;21.73;;;9.87;;
16579;SDS011;8402;51.466;6.806;2022-11-14T08:06:00;25.20;;;10.13;;
16579;SDS011;8402;51.466;6.806;2022-11-14T08:08:29;19.50;;;10.60;;
16579;SDS011;8402;51.466;6.806;2022-11-14T08:10:58;23.03;;;10.27;;
16579;SDS011;8402;51.466;6.806;2022-11-14T08:13:27;28.07;;;11.03;;
16579;SDS011;8402;51.466;6.806;2022-11-14T08:15:58;25.60;;;10.33;;
16579;SDS011;8402;51.466;6.806;2022-11-14T08:18:26;35.17;;;12.00;;
16579;SDS011;8402;51.466;6.806;2022-11-14T08:20:54;31.27;;;12.23;;
16579;SDS011;8402;51.466;6.806;2022-11-14T08:23:24;32.83;;;12.07;;
16579;SDS011;8402;51.466;6.806;2022-11-14T08:25:52;36.90;;;12.13;;
16579;SDS011;8402;51.466;6.806;2022-11-14T08:28:20;29.50;;;11.83;;
16579;SDS011;8402;51.466;6.806;2022-11-14T08:30:48;35.50;;;12.77;;
16579;SDS011;8402;51.466;6.806;2022-11-14T08:33:15;25.07;;;11.03;;
16579;SDS011;8402;51.466;6.806;2022-11-14T08:35:43;24.80;;;11.47;;
16579;SDS011;8402;51.466;6.806;2022-11-14T08:38:11;21.03;;;10.60;;
16579;SDS011;8402;51.466;6.806;2022-11-14T08:40:42;21.73;;;9.27;;
16579;SDS011;8402;51.466;6.806;2022-11-14T08:43:10;18.03;;;9.23;;
16579;SDS011;8402;51.466;6.806;2022-11-14T08:45:38;21.03;;;9.70;;
16579;SDS011;8402;51.466;6.806;2022-11-14T08:48:06;19.03;;;9.13;;
16579;SDS011;8402;51.466;6.806;2022-11-14T08:50:34;19.80;;;9.80;;
16579;SDS011;8402;51.466;6.806;2022-11-14T08:53:02;19.83;;;9.50;;
16579;SDS011;8402;51.466;6.806;2022-11-14T08:55:30;20.70;;;9.80;;
16579;SDS011;8402;51.466;6.806;2022-11-14T08:57:59;19.23;;;10.40;;
16579;SDS011;8402;51.466;6.806;2022-11-14T09:00:27;19.83;;;8.73;;
16579;SDS011;8402;51.466;6.806;2022-11-14T09:02:55;13.93;;;6.63;;
16579;SDS011;8402;51.466;6.806;2022-11-14T09:05:23;23.63;;;10.60;;
16579;SDS011;8402;51.466;6.806;2022-11-14T09:07:52;23.03;;;10.43;;
16579;SDS011;8402;51.466;6.806;2022-11-14T09:10:20;22.00;;;9.87;;
16579;SDS011;8402;51.466;6.806;2022-11-14T09:12:53;22.00;;;10.23;;
16579;SDS011;8402;51.466;6.806;2022-11-14T09:15:23;20.23;;;10.60;;
16579;SDS011;8402;51.466;6.806;2022-11-14T09:17:51;20.40;;;9.27;;
16579;SDS011;8402;51.466;6.806;2022-11-14T09:20:19;30.57;;;10.70;;
16579;SDS011;8402;51.466;6.806;2022-11-14T09:22:57;26.00;;;11.37;;
16579;SDS011;8402;51.466;6.806;2022-11-14T09:25:25;19.13;;;10.07;;
16579;SDS011;8402;51.466;6.806;2022-11-14T09:27:55;16.97;;;7.93;;
16579;SDS011;8402;51.466;6.806;2022-11-14T09:30:25;21.53;;;9.83;;
16579;SDS011;8402;51.466;6.806;2022-11-14T09:32:57;20.87;;;8.93;;
16579;SDS011;8402;51.466;6.806;2022-11-14T09:35:26;20.97;;;10.70;;
16579;SDS011;8402;51.466;6.806;2022-11-14T09:38:00;19.40;;;9.93;;
16579;SDS011;8402;51.466;6.806;2022-11-14T09:40:28;21.40;;;11.40;;
16579;SDS011;8402;51.466;6.806;2022-11-14T09:43:01;23.60;;;11.27;;
16579;SDS011;8402;51.466;6.806;2022-11-14T09:45:41;21.83;;;11.10;;
16579;SDS011;8402;51.466;6.806;2022-11-14T09:48:15;23.10;;;10.43;;
16579;SDS011;8402;51.466;6.806;2022-11-14T09:50:47;24.57;;;11.40;;
16579;SDS011;8402;51.466;6.806;2022-11-14T09:53:29;24.00;;;11.50;;
16579;SDS011;8402;51.466;6.806;2022-11-14T09:55:59;23.70;;;10.83;;
16579;SDS011;8402;51.466;6.806;2022-11-14T09:58:28;25.60;;;10.93;;
16579;SDS011;8402;51.466;6.806;2022-11-14T10:01:06;25.10;;;11.27;;
16579;SDS011;8402;51.466;6.806;2022-11-14T10:03:44;26.03;;;11.77;;
16579;SDS011;8402;51.466;6.806;2022-11-14T10:06:21;26.00;;;10.80;;
16579;SDS011;8402;51.466;6.806;2022-11-14T10:09:02;25.50;;;12.07;;
16579;SDS011;8402;51.466;6.806;2022-11-14T10:11:46;24.03;;;10.17;;
16579;SDS011;8402;51.466;6.806;2022-11-14T10:14:30;29.03;;;11.80;;
16579;SDS011;8402;51.466;6.806;2022-11-14T10:17:17;22.90;;;10.27;;
16579;SDS011;8402;51.466;6.806;2022-11-14T10:20:02;22.17;;;11.17;;
16579;SDS011;8402;51.466;6.806;2022-11-14T10:22:44;21.93;;;10.60;;
16579;SDS011;8402;51.466;6.806;2022-11-14T10:25:29;22.93;;;10.47;;
16579;SDS011;8402;51.466;6.806;2022-11-14T10:28:19;24.80;;;11.57;;
16579;SDS011;8402;51.466;6.806;2022-11-14T10:31:00;26.90;;;11.03;;
16579;SDS011;8402;51.466;6.806;2022-11-14T10:33:38;23.00;;;10.17;;
16579;SDS011;8402;51.466;6.806;2022-11-14T10:36:18;23.77;;;10.47;;
16579;SDS011;8402;51.466;6.806;2022-11-14T10:38:53;18.43;;;9.37;;
16579;SDS011;8402;51.466;6.806;2022-11-14T10:41:32;17.57;;;8.83;;
16579;SDS011;8402;51.466;6.806;2022-11-14T10:44:23;21.23;;;9.43;;
16579;SDS011;8402;51.466;6.806;2022-11-14T10:46:55;22.90;;;8.93;;
16579;SDS011;8402;51.466;6.806;2022-11-14T10:49:30;18.53;;;8.50;;
16579;SDS011;8402;51.466;6.806;2022-11-14T10:52:08;16.33;;;7.93;;
16579;SDS011;8402;51.466;6.806;2022-11-14T10:54:40;19.00;;;7.80;;
16579;SDS011;8402;51.466;6.806;2022-11-14T10:57:14;15.33;;;7.47;;
16579;SDS011;8402;51.466;6.806;2022-11-14T10:59:43;17.03;;;8.50;;
16579;SDS011;8402;51.466;6.806;2022-11-14T11:02:12;14.87;;;7.33;;
16579;SDS011;8402;51.466;6.806;2022-11-14T11:04:43;14.67;;;7.60;;
16579;SDS011;8402;51.466;6.806;2022-11-14T11:07:17;17.93;;;8.37;;
16579;SDS011;8402;51.466;6.806;2022-11-14T11:10:18;15.43;;;7.27;;
16579;SDS011;8402;51.466;6.806;2022-11-14T11:13:04;15.37;;;7.53;;
16579;SDS011;8402;51.466;6.806;2022-11-14T11:15:38;13.70;;;6.90;;
16579;SDS011;8402;51.466;6.806;2022-11-14T11:18:22;14.77;;;7.10;;
16579;SDS011;8402;51.466;6.806;2022-11-14T11:21:04;16.47;;;7.63;;
16579;SDS011;8402;51.466;6.806;2022-11-14T11:23:34;15.90;;;7.07;;
16579;SDS011;8402;51.466;6.806;2022-11-14T11:26:04;13.23;;;5.90;;
16579;SDS011;8402;51.466;6.806;2022-11-14T11:28:35;12.57;;;6.07;;
16579;SDS011;8402;51.466;6.806;2022-11-14T11:31:04;13.77;;;6.40;;
16579;SDS011;8402;51.466;6.806;2022-11-14T11:33:34;11.90;;;6.27;;
16579;SDS011;8402;51.466;6.806;2022-11-14T11:36:05;12.23;;;6.50;;
16579;SDS011;8402;51.466;6.806;2022-11-14T11:38:38;10.13;;;6.10;;
16579;SDS011;8402;51.466;6.806;2022-11-14T11:41:11;14.10;;;5.63;;
16579;SDS011;8402;51.466;6.806;2022-11-14T11:44:06;10.20;;;5.57;;
16579;SDS011;8402;51.466;6.806;2022-11-14T11:46:41;15.93;;;6.73;;
16579;SDS011;8402;51.466;6.806;2022-11-14T11:49:14;11.00;;;5.73;;
16579;SDS011;8402;51.466;6.806;2022-11-14T11:51:47;13.43;;;6.90;;
16579;SDS011;8402;51.466;6.806;2022-11-14T11:54:23;15.27;;;7.00;;
16579;SDS011;8402;51.466;6.806;2022-11-14T11:56:58;12.73;;;6.63;;
16579;SDS011;8402;51.466;6.806;2022-11-14T11:59:30;14.87;;;7.37;;
16579;SDS011;8402;51.466;6.806;2022-11-14T12:02:02;12.30;;;6.57;;
16579;SDS011;8402;51.466;6.806;2022-11-14T12:04:43;13.63;;;6.73;;
16579;SDS011;8402;51.466;6.806;2022-11-14T12:07:13;13.20;;;6.90;;
16579;SDS011;8402;51.466;6.806;2022-11-14T12:09:45;15.43;;;7.63;;
16579;SDS011;8402;51.466;6.806;2022-11-14T12:12:38;11.60;;;6.57;;
16579;SDS011;8402;51.466;6.806;2022-11-14T12:15:30;11.87;;;6.70;;
16579;SDS011;8402;51.466;6.806;2022-11-14T12:18:15;11.67;;;6.27;;
16579;SDS011;8402;51.466;6.806;2022-11-14T12:20:51;17.83;;;7.33;;
16579;SDS011;8402;51.466;6.806;2022-11-14T12:23:39;14.47;;;5.83;;
16579;SDS011;8402;51.466;6.806;2022-11-14T12:26:27;15.73;;;7.40;;
16579;SDS011;8402;51.466;6.806;2022-11-14T12:29:11;19.70;;;7.17;;
16579;SDS011;8402;51.466;6.806;2022-11-14T12:31:58;13.53;;;7.50;;
16579;SDS011;8402;51.466;6.806;2022-11-14T12:34:33;14.97;;;8.30;;
16579;SDS011;8402;51.466;6.806;2022-11-14T12:37:07;16.47;;;7.63;;
16579;SDS011;8402;51.466;6.806;2022-11-14T12:39:42;14.20;;;7.07;;
16579;SDS011;8402;51.466;6.806;2022-11-14T12:42:24;16.77;;;7.77;;
16579;SDS011;8402;51.466;6.806;2022-11-14T12:44:52;18.30;;;8.17;;
16579;SDS011;8402;51.466;6.806;2022-11-14T12:47:20;14.00;;;7.83;;
16579;SDS011;8402;51.466;6.806;2022-11-14T12:49:56;17.27;;;7.60;;
16579;SDS011;8402;51.466;6.806;2022-11-14T12:52:52;13.00;;;7.17;;
16579;SDS011;8402;51.466;6.806;2022-11-14T12:58:34;19.53;;;8.47;;
16579;SDS011;8402;51.466;6.806;2022-11-14T13:04:20;15.70;;;7.27;;
16579;SDS011;8402;51.466;6.806;2022-11-14T13:06:59;15.13;;;7.53;;
16579;SDS011;8402;51.466;6.806;2022-11-14T13:09:53;12.83;;;6.93;;
16579;SDS011;8402;51.466;6.806;2022-11-14T13:12:32;12.17;;;6.57;;
16579;SDS011;8402;51.466;6.806;2022-11-14T13:15:27;11.87;;;6.60;;
16579;SDS011;8402;51.466;6.806;2022-11-14T13:18:18;12.97;;;6.87;;
16579;SDS011;8402;51.466;6.806;2022-11-14T13:21:18;12.57;;;6.80;;
16579;SDS011;8402;51.466;6.806;2022-11-14T13:24:11;13.13;;;6.17;;
16579;SDS011;8402;51.466;6.806;2022-11-14T13:26:42;12.80;;;6.50;;
16579;SDS011;8402;51.466;6.806;2022-11-14T13:35:39;12.67;;;6.27;;
16579;SDS011;8402;51.466;6.806;2022-11-14T13:48:24;15.30;;;7.30;;
16579;SDS011;8402;51.466;6.806;2022-11-14T13:51:18;15.10;;;6.80;;
16579;SDS011;8402;51.466;6.806;2022-11-14T13:54:10;13.30;;;6.73;;
16579;SDS011;8402;51.466;6.806;2022-11-14T13:56:48;15.07;;;7.20;;
16579;SDS011;8402;51.466;6.806;2022-11-14T13:59:41;12.47;;;6.60;;
16579;SDS011;8402;51.466;6.806;2022-11-14T14:02:32;12.93;;;7.23;;
16579;SDS011;8402;51.466;6.806;2022-11-14T14:05:12;16.43;;;7.80;;
16579;SDS011;8402;51.466;6.806;2022-11-14T14:07:55;14.23;;;7.53;;
16579;SDS011;8402;51.466;6.806;2022-11-14T14:10:32;15.80;;;8.07;;
16579;SDS011;8402;51.466;6.806;2022-11-14T14:13:10;13.27;;;7.60;;
16579;SDS011;8402;51.466;6.806;2022-11-14T14:15:48;14.67;;;7.80;;
16579;SDS011;8402;51.466;6.806;2022-11-14T14:18:33;15.23;;;7.37;;
16579;SDS011;8402;51.466;6.806;2022-11-14T14:21:14;17.73;;;8.07;;
16579;SDS011;8402;51.466;6.806;2022-11-14T14:23:56;16.50;;;8.47;;
16579;SDS011;8402;51.466;6.806;2022-11-14T14:26:35;15.47;;;8.07;;
16579;SDS011;8402;51.466;6.806;2022-11-14T14:29:22;15.50;;;7.87;;
16579;SDS011;8402;51.466;6.806;2022-11-14T14:32:00;17.60;;;8.90;;
16579;SDS011;8402;51.466;6.806;2022-11-14T14:34:33;19.37;;;9.17;;
16579;SDS011;8402;51.466;6.806;2022-11-14T14:37:02;20.77;;;9.03;;
16579;SDS011;8402;51.466;6.806;2022-11-14T14:39:31;18.07;;;8.10;;
16579;SDS011;8402;51.466;6.806;2022-11-14T14:42:00;17.87;;;9.30;;
16579;SDS011;8402;51.466;6.806;2022-11-14T14:44:29;16.50;;;8.90;;
16579;SDS011;8402;51.466;6.806;2022-11-14T14:47:13;16.50;;;9.00;;
16579;SDS011;8402;51.466;6.806;2022-11-14T14:49:41;19.90;;;8.60;;
16579;SDS011;8402;51.466;6.806;2022-11-14T14:52:19;17.80;;;9.33;;
16579;SDS011;8402;51.466;6.806;2022-11-14T14:54:54;16.37;;;8.10;;
16579;SDS011;8402;51.466;6.806;2022-11-14T14:57:22;17.77;;;8.80;;
16579;SDS011;8402;51.466;6.806;2022-11-14T14:59:57;16.33;;;8.83;;
16579;SDS011;8402;51.466;6.806;2022-11-14T15:02:26;15.50;;;8.90;;
16579;SDS011;8402;51.466;6.806;2022-11-14T15:04:55;16.63;;;9.00;;
16579;SDS011;8402;51.466;6.806;2022-11-14T15:07:26;19.13;;;9.83;;
16579;SDS011;8402;51.466;6.806;2022-11-14T15:09:58;18.53;;;9.13;;
16579;SDS011;8402;51.466;6.806;2022-11-14T15:12:28;25.57;;;10.03;;
16579;SDS011;8402;51.466;6.806;2022-11-14T15:14:57;15.57;;;8.70;;
16579;SDS011;8402;51.466;6.806;2022-11-14T15:17:27;18.03;;;9.70;;
16579;SDS011;8402;51.466;6.806;2022-11-14T15:20:01;17.00;;;8.40;;
16579;SDS011;8402;51.466;6.806;2022-11-14T15:22:29;17.60;;;8.83;;
16579;SDS011;8402;51.466;6.806;2022-11-14T15:27:50;17.07;;;8.87;;
16579;SDS011;8402;51.466;6.806;2022-11-14T15:30:20;15.03;;;9.17;;
16579;SDS011;8402;51.466;6.806;2022-11-14T15:32:51;18.23;;;9.47;;
16579;SDS011;8402;51.466;6.806;2022-11-14T15:35:24;17.07;;;9.13;;
16579;SDS011;8402;51.466;6.806;2022-11-14T15:38:01;17.33;;;9.50;;
16579;SDS011;8402;51.466;6.806;2022-11-14T15:43:47;20.60;;;10.10;;
16579;SDS011;8402;51.466;6.806;2022-11-14T15:46:25;19.43;;;10.13;;